createdAt,value
2018-09-10T00:01:33.191Z,101479.69
2018-09-10T00:04:02.077Z,101478.66
2018-09-10T00:06:30.923Z,101485.88
2018-09-10T00:08:59.771Z,101485.88
2018-09-10T00:11:28.612Z,101491.53
2018-09-10T00:13:57.463Z,101485.22
2018-09-10T00:16:26.272Z,101493.29
2018-09-10T00:18:55.163Z,101492.26
2018-09-10T00:21:24.033Z,101491.05
2018-09-10T00:23:52.862Z,101495.34
2018-09-10T00:26:21.725Z,101490.58
2018-09-10T00:28:50.582Z,101486.69
2018-09-10T00:31:19.434Z,101485.91
2018-09-10T00:33:48.304Z,101490.06
2018-09-10T00:36:17.182Z,101487.83
2018-09-10T00:38:46.029Z,101485.09
2018-09-10T00:41:14.874Z,101475.16
2018-09-10T00:43:43.745Z,101480.48
2018-09-10T00:46:12.643Z,101486.14
2018-09-10T00:48:41.511Z,101496.97
2018-09-10T00:51:10.403Z,101500.12
2018-09-10T00:53:39.244Z,101491.80
2018-09-10T00:56:08.126Z,101490.94
2018-09-10T00:58:36.990Z,101480.16
2018-09-10T01:01:05.843Z,101492.52
2018-09-10T01:03:34.670Z,101492.66
2018-09-10T01:06:03.542Z,101493.72
2018-09-10T01:08:32.366Z,101495.59
2018-09-10T01:11:01.191Z,101491.82
2018-09-10T01:13:30.139Z,101487.87
2018-09-10T01:15:58.925Z,101485.47
2018-09-10T01:18:27.804Z,101485.98
2018-09-10T01:20:56.691Z,101490.27
2018-09-10T01:23:25.553Z,101492.67
2018-09-10T01:25:54.426Z,101490.48
2018-09-10T01:28:23.292Z,101496.62
2018-09-10T01:30:52.149Z,101502.45
2018-09-10T01:33:38.571Z,101493.72
2018-09-10T01:36:07.428Z,101493.54
2018-09-10T01:38:36.263Z,101490.80
2018-09-10T01:41:05.151Z,101487.05
2018-09-10T01:43:34.011Z,101484.82
2018-09-10T01:46:03.085Z,101486.36
2018-09-10T01:48:31.916Z,101488.77
2018-09-10T01:51:00.790Z,101498.36
2018-09-10T01:53:29.626Z,101496.14
2018-09-10T01:55:58.604Z,101500.42
2018-09-10T01:58:27.479Z,101501.79
2018-09-10T02:00:56.381Z,101494.24
2018-09-10T02:03:25.234Z,101496.12
2018-09-10T02:05:54.066Z,101501.08
2018-09-10T02:08:22.948Z,101504.17
2018-09-10T02:10:51.790Z,101502.80
2018-09-10T02:13:20.671Z,101503.82
2018-09-10T02:15:49.506Z,101501.95
2018-09-10T02:18:18.974Z,101497.48
2018-09-10T02:20:47.787Z,101494.07
2018-09-10T02:23:16.857Z,101499.21
2018-09-10T02:25:45.715Z,101502.13
2018-09-10T02:28:14.575Z,101499.89
2018-09-10T02:30:43.439Z,101497.15
2018-09-10T02:33:12.301Z,101495.44
2018-09-10T02:35:41.173Z,101494.23
2018-09-10T02:38:10.039Z,101504.17
2018-09-10T02:40:38.913Z,101495.95
2018-09-10T02:43:07.778Z,101493.38
2018-09-10T02:45:36.637Z,101498.19
2018-09-10T02:48:05.514Z,101489.10
2018-09-10T02:50:34.371Z,101486.53
2018-09-10T02:53:03.252Z,101491.33
2018-09-10T02:55:32.131Z,101492.52
2018-09-10T02:58:01.008Z,101488.74
2018-09-10T03:00:29.867Z,101497.32
2018-09-10T03:02:58.733Z,101501.45
2018-09-10T03:05:27.593Z,101510.17
2018-09-10T03:07:56.453Z,101506.41
2018-09-10T03:10:25.306Z,101503.14
2018-09-10T03:12:54.988Z,101511.38
2018-09-10T03:15:23.863Z,101508.63
2018-09-10T03:17:53.114Z,101501.95
2018-09-10T03:20:22.271Z,101500.75
2018-09-10T03:22:51.129Z,101505.39
2018-09-10T03:25:19.978Z,101509.86
2018-09-10T03:27:48.793Z,101515.16
2018-09-10T03:30:17.690Z,101513.44
2018-09-10T03:32:46.566Z,101514.48
2018-09-10T03:35:15.428Z,101516.17
2018-09-10T03:37:44.254Z,101511.56
2018-09-10T03:40:13.135Z,101517.91
2018-09-10T03:42:42.011Z,101511.70
2018-09-10T03:45:10.855Z,101512.41
2018-09-10T03:47:39.719Z,101508.98
2018-09-10T03:50:08.594Z,101514.47
2018-09-10T03:52:37.459Z,101526.98
2018-09-10T03:55:06.302Z,101528.69
2018-09-10T03:57:35.186Z,101530.75
2018-09-10T04:00:04.154Z,101530.56
2018-09-10T04:02:33.033Z,101531.94
2018-09-10T04:05:01.867Z,101533.31
2018-09-10T04:07:30.737Z,101528.34
2018-09-10T04:09:59.571Z,101528.51
2018-09-10T04:12:28.425Z,101520.47
2018-09-10T04:14:57.288Z,101530.05
2018-09-10T04:17:26.149Z,101533.48
2018-09-10T04:20:08.020Z,101529.88
2018-09-10T04:22:37.166Z,101525.42
2018-09-10T04:25:06.325Z,101527.50
2018-09-10T04:27:35.861Z,101537.94
2018-09-10T04:30:13.438Z,101544.28
2018-09-10T04:32:42.310Z,101542.75
2018-09-10T04:35:11.955Z,101543.26
2018-09-10T04:37:41.236Z,101545.48
2018-09-10T04:40:10.122Z,101545.67
2018-09-10T04:42:38.989Z,101541.20
2018-09-10T04:45:07.936Z,101546.84
2018-09-10T04:47:36.781Z,101548.37
2018-09-10T04:50:06.024Z,101555.44
2018-09-10T04:52:34.887Z,101549.95
2018-09-10T04:55:03.839Z,101559.20
2018-09-10T04:57:32.733Z,101564.15
2018-09-10T05:00:01.633Z,101563.98
2018-09-10T05:02:30.502Z,101568.77
2018-09-10T05:04:59.406Z,101581.78
2018-09-10T05:07:28.295Z,101595.66
2018-09-10T05:09:57.308Z,101591.03
2018-09-10T05:12:26.047Z,101582.14
2018-09-10T05:14:54.909Z,101570.83
2018-09-10T05:17:23.760Z,101571.51
2018-09-10T05:19:52.660Z,101571.32
2018-09-10T05:22:21.506Z,101569.45
2018-09-10T05:24:50.428Z,101566.86
2018-09-10T05:27:19.330Z,101573.91
2018-09-10T05:29:48.218Z,101576.70
2018-09-10T05:32:17.108Z,101587.45
2018-09-10T05:34:46.007Z,101574.94
2018-09-10T05:37:14.934Z,101579.41
2018-09-10T05:39:43.784Z,101582.50
2018-09-10T05:42:12.673Z,101593.97
2018-09-10T05:44:41.547Z,101597.22
2018-09-10T05:47:10.502Z,101615.41
2018-09-10T05:49:39.383Z,101616.77
2018-09-10T05:52:08.225Z,101605.98
2018-09-10T05:54:37.108Z,101603.39
2018-09-10T05:57:06.001Z,101604.58
2018-09-10T05:59:34.869Z,101590.02
2018-09-10T06:02:03.708Z,101599.12
2018-09-10T06:04:32.584Z,101597.91
2018-09-10T06:07:01.462Z,101609.56
2018-09-10T06:09:30.377Z,101598.59
2018-09-10T06:11:59.255Z,101604.77
2018-09-10T06:14:28.141Z,101612.69
2018-09-10T06:16:57.020Z,101611.98
2018-09-10T06:19:25.931Z,101613.37
2018-09-10T06:21:54.800Z,101620.22
2018-09-10T06:24:23.709Z,101621.28
2018-09-10T06:26:52.576Z,101627.45
2018-09-10T06:29:21.474Z,101627.46
2018-09-10T06:31:50.314Z,101632.42
2018-09-10T06:34:19.291Z,101626.77
2018-09-10T06:36:48.072Z,101635.02
2018-09-10T06:39:16.927Z,101639.45
2018-09-10T06:41:45.901Z,101635.19
2018-09-10T06:44:14.770Z,101626.78
2018-09-10T06:46:43.628Z,101622.69
2018-09-10T06:49:12.523Z,101622.17
2018-09-10T06:51:41.362Z,101611.03
2018-09-10T06:54:10.591Z,101610.34
2018-09-10T06:56:39.432Z,101612.22
2018-09-10T06:59:08.410Z,101614.78
2018-09-10T07:01:37.284Z,101609.97
2018-09-10T07:04:06.201Z,101604.49
2018-09-10T07:06:35.134Z,101622.98
2018-09-10T07:09:05.576Z,101624.52
2018-09-10T07:11:34.429Z,101625.00
2018-09-10T07:14:03.318Z,101626.66
2018-09-10T07:16:32.137Z,101622.14
2018-09-10T07:19:01.063Z,101632.91
2018-09-10T07:21:31.083Z,101629.02
2018-09-10T07:23:59.955Z,101634.76
2018-09-10T07:26:28.825Z,101635.84
2018-09-10T07:28:57.655Z,101653.06
2018-09-10T07:31:26.542Z,101656.50
2018-09-10T07:33:55.404Z,101655.09
2018-09-10T07:36:24.271Z,101644.33
2018-09-10T07:38:53.123Z,101637.03
2018-09-10T07:41:21.979Z,101652.11
2018-09-10T07:43:51.431Z,101661.92
2018-09-10T07:46:20.527Z,101639.05
2018-09-10T07:48:49.397Z,101642.84
2018-09-10T07:51:18.237Z,101653.44
2018-09-10T07:53:47.143Z,101653.97
2018-09-10T07:56:15.989Z,101654.09
2018-09-10T07:58:44.852Z,101646.56
2018-09-10T08:01:13.743Z,101647.49
2018-09-10T08:03:42.615Z,101645.17
2018-09-10T08:06:11.478Z,101654.13
2018-09-10T08:08:40.333Z,101649.87
2018-09-10T08:11:09.197Z,101657.55
2018-09-10T08:13:38.054Z,101652.48
2018-09-10T08:16:06.900Z,101650.58
2018-09-10T08:18:35.752Z,101649.81
2018-09-10T08:21:04.579Z,101647.16
2018-09-10T08:23:33.426Z,101660.25
2018-09-10T08:26:02.330Z,101666.83
2018-09-10T08:28:31.219Z,101669.52
2018-09-10T08:31:00.100Z,101672.61
2018-09-10T08:33:28.951Z,101674.23
2018-09-10T08:35:57.864Z,101676.18
2018-09-10T08:38:26.713Z,101677.30
2018-09-10T08:40:55.550Z,101690.08
2018-09-10T08:43:24.444Z,101693.03
2018-09-10T08:45:53.374Z,101689.06
2018-09-10T08:48:22.373Z,101685.29
2018-09-10T08:50:51.058Z,101691.27
2018-09-10T08:53:20.101Z,101687.71
2018-09-10T08:55:49.097Z,101690.36
2018-09-10T08:58:17.848Z,101680.63
2018-09-10T09:00:46.697Z,101689.42
2018-09-10T09:03:15.538Z,101689.45
2018-09-10T09:05:44.377Z,101696.83
2018-09-10T09:08:13.211Z,101697.08
2018-09-10T09:10:42.126Z,101688.19
2018-09-10T09:13:10.989Z,101683.25
2018-09-10T09:15:39.828Z,101687.65
2018-09-10T09:18:08.662Z,101690.13
2018-09-10T09:20:37.540Z,101691.16
2018-09-10T09:23:06.413Z,101693.89
2018-09-10T09:25:35.216Z,101704.48
2018-09-10T09:28:04.082Z,101693.56
2018-09-10T09:30:32.961Z,101696.55
2018-09-10T09:33:01.792Z,101696.89
2018-09-10T09:35:48.079Z,101720.79
2018-09-10T09:38:35.009Z,101722.00
2018-09-10T09:41:21.902Z,101702.73
2018-09-10T09:44:08.727Z,101702.88
2018-09-10T09:46:37.665Z,101700.91
2018-09-10T09:49:06.528Z,101705.42
2018-09-10T09:51:35.417Z,101703.28
2018-09-10T09:54:04.289Z,101699.14
2018-09-10T09:56:33.172Z,101710.43
2018-09-10T09:59:02.030Z,101711.44
2018-09-10T10:01:48.846Z,101708.99
2018-09-10T10:04:17.783Z,101699.03
2018-09-10T10:06:46.626Z,101704.50
2018-09-10T10:09:15.535Z,101707.13
2018-09-10T10:11:44.452Z,101708.61
2018-09-10T10:14:13.241Z,101698.90
2018-09-10T10:16:42.122Z,101702.60
2018-09-10T10:19:11.008Z,101699.00
2018-09-10T10:21:39.961Z,101689.59
2018-09-10T10:24:08.787Z,101690.98
2018-09-10T10:26:37.687Z,101682.23
2018-09-10T10:29:06.586Z,101682.87
2018-09-10T10:31:35.464Z,101691.86
2018-09-10T10:34:04.354Z,101687.19
2018-09-10T10:36:33.240Z,101687.18
2018-09-10T10:39:02.384Z,101687.14
2018-09-10T10:41:31.225Z,101693.06
2018-09-10T10:44:00.120Z,101683.59
2018-09-10T10:46:29.174Z,101678.72
2018-09-10T10:48:58.015Z,101685.45
2018-09-10T10:51:26.875Z,101683.00
2018-09-10T10:53:55.714Z,101686.12
2018-09-10T10:56:24.551Z,101692.84
2018-09-10T10:58:53.383Z,101691.55
2018-09-10T11:01:22.258Z,101692.60
2018-09-10T11:03:51.123Z,101699.76
2018-09-10T11:06:19.954Z,101705.66
2018-09-10T11:08:49.530Z,101689.70
2018-09-10T11:11:18.521Z,101684.63
2018-09-10T11:13:47.355Z,101698.02
2018-09-10T11:16:16.189Z,101700.38
2018-09-10T11:18:45.047Z,101706.14
2018-09-10T11:21:13.914Z,101705.13
2018-09-10T11:23:42.744Z,101713.98
2018-09-10T11:26:11.590Z,101707.92
2018-09-10T11:28:40.448Z,101716.22
2018-09-10T11:31:09.348Z,101723.42
2018-09-10T11:33:38.114Z,101731.33
2018-09-10T11:36:07.000Z,101729.73
2018-09-10T11:38:35.824Z,101734.89
2018-09-10T11:41:04.673Z,101733.75
2018-09-10T11:43:33.482Z,101736.95
2018-09-10T11:46:02.328Z,101731.51
2018-09-10T11:48:31.169Z,101729.69
2018-09-10T11:51:00.048Z,101737.60
2018-09-10T11:53:28.944Z,101725.67
2018-09-10T11:55:57.811Z,101718.66
2018-09-10T11:58:26.766Z,101708.64
2018-09-10T12:00:55.681Z,101712.38
2018-09-10T12:03:24.531Z,101710.31
2018-09-10T12:05:53.399Z,101716.61
2018-09-10T12:08:22.312Z,101716.03
2018-09-10T12:10:51.097Z,101724.75
2018-09-10T12:13:19.936Z,101735.89
2018-09-10T12:15:48.815Z,101741.84
2018-09-10T12:18:17.669Z,101738.08
2018-09-10T12:20:46.561Z,101744.31
2018-09-10T12:23:15.416Z,101745.91
2018-09-10T12:25:44.260Z,101747.55
2018-09-10T12:28:13.109Z,101743.98
2018-09-10T12:30:42.005Z,101745.08
2018-09-10T12:33:10.828Z,101743.41
2018-09-10T12:35:39.665Z,101742.66
2018-09-10T12:38:08.609Z,101740.28
2018-09-10T12:40:37.458Z,101725.70
2018-09-10T12:43:06.294Z,101727.41
2018-09-10T12:45:35.907Z,101730.92
2018-09-10T12:48:04.839Z,101725.75
2018-09-10T12:50:33.895Z,101726.88
2018-09-10T12:53:02.751Z,101706.05
2018-09-10T12:55:31.574Z,101707.31
2018-09-10T12:58:00.407Z,101702.35
2018-09-10T13:00:29.264Z,101697.07
2018-09-10T13:02:58.094Z,101700.34
2018-09-10T13:05:26.944Z,101694.16
2018-09-10T13:07:55.782Z,101697.21
2018-09-10T13:10:24.617Z,101700.69
2018-09-10T13:12:53.505Z,101707.18
2018-09-10T13:15:22.377Z,101709.79
2018-09-10T13:17:51.215Z,101721.16
2018-09-10T13:20:20.046Z,101709.85
2018-09-10T13:22:48.866Z,101717.33
2018-09-10T13:25:17.705Z,101710.90
2018-09-10T13:27:46.582Z,101707.48
2018-09-10T13:30:15.419Z,101709.54
2018-09-10T13:32:44.261Z,101704.87
2018-09-10T13:35:13.137Z,101706.12
2018-09-10T13:37:42.008Z,101708.37
2018-09-10T13:40:10.841Z,101709.59
2018-09-10T13:42:39.679Z,101711.27
2018-09-10T13:45:08.524Z,101718.31
2018-09-10T13:47:37.356Z,101712.08
2018-09-10T13:50:06.218Z,101711.88
2018-09-10T13:52:35.080Z,101715.89
2018-09-10T13:55:03.958Z,101723.94
2018-09-10T13:57:32.821Z,101724.13
2018-09-10T14:00:01.660Z,101728.25
2018-09-10T14:02:30.503Z,101729.11
2018-09-10T14:04:59.364Z,101731.04
2018-09-10T14:07:28.220Z,101737.41
2018-09-10T14:09:57.093Z,101728.45
2018-09-10T14:12:25.982Z,101727.59
2018-09-10T14:14:54.821Z,101726.51
2018-09-10T14:17:23.649Z,101731.32
2018-09-10T14:19:52.505Z,101729.27
2018-09-10T14:22:21.346Z,101722.18
2018-09-10T14:24:50.201Z,101722.38
2018-09-10T14:27:19.083Z,101735.05
2018-09-10T14:29:47.895Z,101747.26
2018-09-10T14:32:16.755Z,101739.42
2018-09-10T14:34:45.633Z,101745.84
2018-09-10T14:37:14.440Z,101747.18
2018-09-10T14:39:43.278Z,101739.95
2018-09-10T14:42:13.547Z,101750.61
2018-09-10T14:44:42.891Z,101746.95
2018-09-10T14:47:12.199Z,101751.62
2018-09-10T14:49:41.388Z,101755.87
2018-09-10T14:52:10.789Z,101760.13
2018-09-10T14:54:39.939Z,101754.83
2018-09-10T14:57:09.184Z,101760.12
2018-09-10T14:59:38.407Z,101761.20
2018-09-10T15:02:07.660Z,101756.94
2018-09-10T15:04:36.950Z,101751.58
2018-09-10T15:07:06.147Z,101754.00
2018-09-10T15:09:35.374Z,101747.09
2018-09-10T15:12:04.694Z,101746.09
2018-09-10T15:14:33.634Z,101742.47
2018-09-10T15:17:02.420Z,101742.76
2018-09-10T15:19:31.270Z,101738.95
2018-09-10T15:22:00.216Z,101745.79
2018-09-10T15:24:29.114Z,101752.87
2018-09-10T15:26:58.109Z,101763.28
2018-09-10T15:29:26.948Z,101757.88
2018-09-10T15:31:55.809Z,101758.41
2018-09-10T15:34:24.703Z,101755.67
2018-09-10T15:36:53.496Z,101747.73
2018-09-10T15:39:22.330Z,101738.23
2018-09-10T15:41:51.175Z,101732.83
2018-09-10T15:44:20.081Z,101726.71
2018-09-10T15:46:48.896Z,101723.58
2018-09-10T15:49:17.759Z,101713.47
2018-09-10T15:51:46.582Z,101708.47
2018-09-10T15:54:15.446Z,101710.78
2018-09-10T15:56:44.286Z,101714.96
2018-09-10T15:59:13.141Z,101712.80
2018-09-10T16:01:41.984Z,101716.91
2018-09-10T16:04:10.838Z,101719.58
2018-09-10T16:06:39.709Z,101720.11
2018-09-10T16:09:09.098Z,101725.78
2018-09-10T16:11:38.002Z,101702.45
2018-09-10T16:14:06.817Z,101699.70
2018-09-10T16:16:35.683Z,101695.62
2018-09-10T16:19:04.550Z,101687.30
2018-09-10T16:21:33.435Z,101679.05
2018-09-10T16:24:02.264Z,101682.38
2018-09-10T16:26:31.124Z,101681.89
2018-09-10T16:28:59.971Z,101685.51
2018-09-10T16:31:28.816Z,101688.91
2018-09-10T16:33:57.664Z,101697.27
2018-09-10T16:36:26.483Z,101699.16
2018-09-10T16:38:55.317Z,101692.03
2018-09-10T16:41:24.164Z,101681.70
2018-09-10T16:43:53.048Z,101681.70
2018-09-10T16:46:21.877Z,101686.42
2018-09-10T16:48:50.713Z,101693.10
2018-09-10T16:51:19.628Z,101701.03
2018-09-10T16:53:48.409Z,101702.23
2018-09-10T16:56:17.219Z,101713.14
2018-09-10T16:58:46.045Z,101722.11
2018-09-10T17:01:14.883Z,101724.19
2018-09-10T17:03:43.724Z,101735.55
2018-09-10T17:06:12.652Z,101745.41
2018-09-10T17:08:41.756Z,101751.69
2018-09-10T17:11:10.576Z,101749.69
2018-09-10T17:13:39.457Z,101752.45
2018-09-10T17:16:08.283Z,101756.76
2018-09-10T17:18:37.117Z,101760.73
2018-09-10T17:21:06.150Z,101766.63
2018-09-10T17:23:34.978Z,101759.59
2018-09-10T17:26:03.806Z,101761.53
2018-09-10T17:28:32.680Z,101751.05
2018-09-10T17:31:01.540Z,101752.78
2018-09-10T17:33:30.384Z,101762.31
2018-09-10T17:35:59.216Z,101759.73
2018-09-10T17:38:28.065Z,101754.23
2018-09-10T17:40:56.909Z,101744.94
2018-09-10T17:43:25.758Z,101738.11
2018-09-10T17:45:54.650Z,101730.56
2018-09-10T17:48:23.520Z,101734.04
2018-09-10T17:50:52.384Z,101724.19
2018-09-10T17:53:21.224Z,101723.91
2018-09-10T17:55:50.066Z,101721.96
2018-09-10T17:58:19.136Z,101726.07
2018-09-10T18:00:48.398Z,101725.58
2018-09-10T18:03:17.165Z,101720.95
2018-09-10T18:05:46.004Z,101712.62
2018-09-10T18:08:15.006Z,101709.85
2018-09-10T18:10:43.881Z,101720.92
2018-09-10T18:13:12.742Z,101732.21
2018-09-10T18:15:41.532Z,101729.34
2018-09-10T18:18:10.402Z,101730.79
2018-09-10T18:20:39.227Z,101724.27
2018-09-10T18:23:08.092Z,101728.91
2018-09-10T18:25:36.962Z,101732.73
2018-09-10T18:28:05.853Z,101731.70
2018-09-10T18:30:34.725Z,101730.14
2018-09-10T18:33:03.565Z,101739.26
2018-09-10T18:35:32.455Z,101728.63
2018-09-10T18:38:01.254Z,101729.33
2018-09-10T18:40:30.117Z,101723.66
2018-09-10T18:42:58.933Z,101724.86
2018-09-10T18:45:27.793Z,101733.11
2018-09-10T18:47:56.599Z,101736.23
2018-09-10T18:50:25.473Z,101737.43
2018-09-10T18:52:54.303Z,101738.45
2018-09-10T18:55:23.167Z,101745.16
2018-09-10T18:57:52.439Z,101751.52
2018-09-10T19:00:21.282Z,101750.17
2018-09-10T19:02:50.121Z,101764.53
2018-09-10T19:05:19.025Z,101768.16
2018-09-10T19:07:47.876Z,101757.36
2018-09-10T19:10:16.719Z,101752.92
2018-09-10T19:12:45.550Z,101757.92
2018-09-10T19:15:14.399Z,101758.41
2018-09-10T19:17:43.264Z,101752.23
2018-09-10T19:20:12.102Z,101753.90
2018-09-10T19:22:40.937Z,101747.42
2018-09-10T19:25:09.796Z,101748.98
2018-09-10T19:27:38.686Z,101748.63
2018-09-10T19:30:07.528Z,101744.34
2018-09-10T19:32:36.384Z,101752.73
2018-09-10T19:35:05.237Z,101749.45
2018-09-10T19:37:34.133Z,101747.94
2018-09-10T19:40:02.916Z,101752.92
2018-09-10T19:42:31.824Z,101752.94
2018-09-10T19:45:00.662Z,101755.33
2018-09-10T19:47:29.489Z,101761.70
2018-09-10T19:49:58.351Z,101764.63
2018-09-10T19:52:27.264Z,101761.36
2018-09-10T19:54:56.174Z,101761.34
2018-09-10T19:57:25.003Z,101772.69
2018-09-10T19:59:53.877Z,101778.17
2018-09-10T20:02:22.698Z,101775.95
2018-09-10T20:04:51.546Z,101780.06
2018-09-10T20:07:20.400Z,101780.06
2018-09-10T20:09:49.380Z,101767.17
2018-09-10T20:12:18.141Z,101765.80
2018-09-10T20:14:47.062Z,101767.83
2018-09-10T20:17:15.903Z,101766.61
2018-09-10T20:19:44.740Z,101772.97
2018-09-10T20:22:15.340Z,101771.23
2018-09-10T20:24:44.185Z,101756.25
2018-09-10T20:27:13.091Z,101754.38
2018-09-10T20:29:41.939Z,101755.88
2018-09-10T20:32:10.777Z,101747.95
2018-09-10T20:34:39.627Z,101743.66
2018-09-10T20:37:08.493Z,101737.98
2018-09-10T20:39:37.340Z,101741.91
2018-09-10T20:42:06.190Z,101738.50
2018-09-10T20:44:35.053Z,101741.03
2018-09-10T20:47:03.909Z,101741.63
2018-09-10T20:49:32.761Z,101746.86
2018-09-10T20:52:01.732Z,101751.64
2018-09-10T20:54:30.576Z,101758.80
2018-09-10T20:56:59.447Z,101737.29
2018-09-10T20:59:28.341Z,101733.98
2018-09-10T21:01:57.156Z,101750.91
2018-09-10T21:04:26.041Z,101746.95
2018-09-10T21:06:54.877Z,101727.89
2018-09-10T21:09:23.770Z,101723.05
2018-09-10T21:11:52.601Z,101720.77
2018-09-10T21:14:21.481Z,101719.49
2018-09-10T21:16:50.365Z,101721.05
2018-09-10T21:19:19.807Z,101717.57
2018-09-10T21:21:48.676Z,101722.85
2018-09-10T21:24:17.523Z,101723.56
2018-09-10T21:26:46.387Z,101725.79
2018-09-10T21:29:15.242Z,101715.65
2018-09-10T21:31:44.136Z,101715.09
2018-09-10T21:34:13.007Z,101716.16
2018-09-10T21:36:41.895Z,101718.34
2018-09-10T21:39:11.223Z,101721.59
2018-09-10T21:41:40.137Z,101712.20
2018-09-10T21:44:09.716Z,101701.05
2018-09-10T21:46:38.604Z,101704.14
2018-09-10T21:49:07.478Z,101700.70
2018-09-10T21:51:36.349Z,101702.88
2018-09-10T21:54:05.252Z,101693.61
2018-09-10T21:56:34.077Z,101701.36
2018-09-10T21:59:02.938Z,101706.98
2018-09-10T22:01:31.752Z,101705.10
2018-09-10T22:04:00.625Z,101703.12
2018-09-10T22:06:29.503Z,101705.51
2018-09-10T22:08:58.362Z,101701.67
2018-09-10T22:11:27.216Z,101703.94
2018-09-10T22:13:56.071Z,101700.45
2018-09-10T22:16:24.917Z,101700.51
2018-09-10T22:18:53.795Z,101691.02
2018-09-10T22:21:22.650Z,101695.65
2018-09-10T22:23:51.526Z,101695.92
2018-09-10T22:26:20.389Z,101700.14
2018-09-10T22:28:49.349Z,101690.83
2018-09-10T22:31:18.124Z,101693.69
2018-09-10T22:33:47.017Z,101692.13
2018-09-10T22:36:15.880Z,101687.46
2018-09-10T22:38:44.785Z,101693.25
2018-09-10T22:41:13.658Z,101682.05
2018-09-10T22:43:42.565Z,101688.08
2018-09-10T22:46:11.442Z,101688.34
2018-09-10T22:48:40.350Z,101678.35
2018-09-10T22:51:09.237Z,101676.16
2018-09-10T22:53:38.127Z,101674.08
2018-09-10T22:56:07.023Z,101677.53
2018-09-10T22:58:35.987Z,101670.55
2018-09-10T23:01:04.852Z,101663.89
2018-09-10T23:03:33.689Z,101665.88
2018-09-10T23:06:02.582Z,101656.24
2018-09-10T23:08:31.528Z,101644.58
2018-09-10T23:11:00.340Z,101638.99
2018-09-10T23:13:29.171Z,101640.99
2018-09-10T23:15:58.077Z,101649.70
2018-09-10T23:18:27.044Z,101644.38
2018-09-10T23:20:55.923Z,101651.78
2018-09-10T23:23:24.817Z,101649.91
2018-09-10T23:25:53.685Z,101647.98
2018-09-10T23:28:22.593Z,101647.33
2018-09-10T23:30:51.428Z,101644.94
2018-09-10T23:33:20.373Z,101649.41
2018-09-10T23:35:49.271Z,101640.48
2018-09-10T23:38:18.145Z,101638.51
2018-09-10T23:40:47.059Z,101639.81
2018-09-10T23:43:15.927Z,101640.75
2018-09-10T23:45:44.820Z,101632.77
2018-09-10T23:48:13.676Z,101636.05
2018-09-10T23:50:42.551Z,101639.52
2018-09-10T23:53:11.427Z,101633.23
2018-09-10T23:55:40.282Z,101629.31
2018-09-10T23:58:09.100Z,101626.23
